General Aviation Weather

Text Reports

Enter one or more of the following location identifiers separated by a space:

Zip Code, Four-Character ICAO or Three-Character IATA airport codes.

METAR - Aviation Routine Weather Report
KDLL - Baraboo, Wisconsin
Updated at 5:55 AM GMT on April 24, 2014 (12:55 AM CDT):
METAR KDLL 240555Z AUTO 11003KT 10SM -DZ OVC049 03/01 A3009 RMK AO2 P0001 60008 T00300010 10078 20030 401231016
TAF - Terminal Area Forecast
KDLL - Baraboo, Wisconsin
Updated at 5:55 AM GMT on April 24, 2014 (12:55 AM CDT):
No TAF is currently available for this location.
Decoded:
No decoded TAF is available.
PIREP - Pilot Weather Report
KDLL - Baraboo, Wisconsin
Updated at 5:55 AM GMT on April 24, 2014 (12:55 AM CDT):
No PIREP is currently available for this location.
AIRMET - Airmens Meteorological Information
KDLL - Baraboo, Wisconsin
Updated at 5:55 AM GMT on April 24, 2014 (12:55 AM CDT):
No AIRMET is currently available for this location.
SIGMET - Significant Meteorological Information
KDLL - Baraboo, Wisconsin
Updated at 5:55 AM GMT on April 24, 2014 (12:55 AM CDT):
No SIGMET is currently available for this location.
NOTAM - Notice to Airmen
KDLL - Baraboo, Wisconsin
Updated at 5:55 AM GMT on April 24, 2014 (12:55 AM CDT):
No NOTAM is currently available for this location.
Forecast Area
KDLL - Baraboo, Wisconsin
Updated at 5:55 AM GMT on April 24, 2014 (12:55 AM CDT):
No NOTAM is currently available for this location.
Aviation Weather Maps